Aeroporto :
LOGIN :

Iscrizione | Disclaimer

   EN    FR    IT 

 










Sommario :    VFR   VFR Marginale   IFR   IFR Intensivo   IFR Molto Intensivo
Visibilità : 
Base nubi : 
>= 8 km
>= 3000ft
5 / 8 km
1000 / 3000 ft
1500m / 5 km
500 / 1000 ft
800 / 1500m
200 / 500 ft
< 800m
< 200 ft
Simboli :   Temporali  Nebbia  Neve Forte  Precipitazioni Forti  Vento > 20 kt
SIGMETs :   Varie  Temporali  Ghiacco  Turbolenza  Onda orograficha  Ceneri Vulcaniche






- Altitudine del aeroporto : 69 ft
- Codice IATA : AES


ENAL - Ålesund

ULTIMO METAR :
  • 072120Z 19011KT 9999 FEW014 SCT028 BKN046 03/M00 Q0992

METARs OBSOLETI :
  • 072050Z 19012KT 9999 FEW035 SCT059 02/M00 Q0992
  • 072020Z 20012KT 9999 -DZ FEW006 SCT021 BKN042 02/00 Q0993
  • 071950Z 20013KT 9999 FEW015 SCT022 BKN044 02/00 Q0993
  • 071920Z 20012KT 9999 FEW012 SCT020 BKN046 02/00 Q0993
  • 071850Z 22015KT 9999 FEW018 SCT026 BKN055 03/M00 Q0993

TAF AMD TAF ENAL
Valido dal 07 a 19 ore il 07 a 23 ore UTC


071946Z 0719/0723 20012KT 9999 -SHRASN FEW015TCU SCT020 BKN040



MetMap, La meteo Aeronautica in un colpo d'occhio ! - Copyright ORBIFLY Dicembre 2007 - Disclaimer

ORBIFLY MET'MAP TEAM :

Programmazione e sviluppo : Alexandra Zaïnal
Concezione : Baudouin d'Aumeries
Aiuto per la programmazione : Marc-Olivier Méhu
Supporto tecnico e logistico : Manuel Goepfert
Aiuto per la traduzione : Arnaldo La Scala

Contatto : metmap@orbifly.com




FONTI E CREDITI :

   NOAA